sensor_id;sensor_type;location;lat;lon;timestamp;temperature;humidity
18105;DHT22;9179;50.968;3.134;2024-02-15T00:00:16;14.90;99.90
18105;DHT22;9179;50.968;3.134;2024-02-15T00:02:43;14.80;99.90
18105;DHT22;9179;50.968;3.134;2024-02-15T00:05:11;14.80;99.90
18105;DHT22;9179;50.968;3.134;2024-02-15T00:07:38;14.80;99.90
18105;DHT22;9179;50.968;3.134;2024-02-15T00:10:08;14.80;99.90
18105;DHT22;9179;50.968;3.134;2024-02-15T00:12:36;14.80;99.90
18105;DHT22;9179;50.968;3.134;2024-02-15T00:15:04;14.80;99.90
18105;DHT22;9179;50.968;3.134;2024-02-15T00:17:31;14.90;99.90
18105;DHT22;9179;50.968;3.134;2024-02-15T00:20:01;14.90;99.90
18105;DHT22;9179;50.968;3.134;2024-02-15T00:22:30;14.70;99.90
18105;DHT22;9179;50.968;3.134;2024-02-15T00:24:59;14.70;99.90
18105;DHT22;9179;50.968;3.134;2024-02-15T00:27:27;14.70;99.90
18105;DHT22;9179;50.968;3.134;2024-02-15T00:29:54;14.80;99.90
18105;DHT22;9179;50.968;3.134;2024-02-15T00:32:21;14.80;99.90
18105;DHT22;9179;50.968;3.134;2024-02-15T00:34:48;14.80;99.90
18105;DHT22;9179;50.968;3.134;2024-02-15T00:37:15;14.80;99.90
18105;DHT22;9179;50.968;3.134;2024-02-15T00:39:42;14.90;99.90
18105;DHT22;9179;50.968;3.134;2024-02-15T00:42:09;14.90;99.90
18105;DHT22;9179;50.968;3.134;2024-02-15T00:44:39;14.90;99.90
18105;DHT22;9179;50.968;3.134;2024-02-15T00:47:06;15.00;99.90
18105;DHT22;9179;50.968;3.134;2024-02-15T00:49:33;15.00;99.90
18105;DHT22;9179;50.968;3.134;2024-02-15T00:52:01;14.90;99.90
18105;DHT22;9179;50.968;3.134;2024-02-15T00:54:28;15.00;99.90
18105;DHT22;9179;50.968;3.134;2024-02-15T00:56:55;15.00;99.90
18105;DHT22;9179;50.968;3.134;2024-02-15T00:59:22;15.00;99.90
18105;DHT22;9179;50.968;3.134;2024-02-15T01:01:51;15.10;99.90
18105;DHT22;9179;50.968;3.134;2024-02-15T01:04:19;15.10;99.90
18105;DHT22;9179;50.968;3.134;2024-02-15T01:06:46;15.00;99.90
18105;DHT22;9179;50.968;3.134;2024-02-15T01:09:13;15.00;99.90
18105;DHT22;9179;50.968;3.134;2024-02-15T01:11:40;15.10;99.90
18105;DHT22;9179;50.968;3.134;2024-02-15T01:14:07;15.10;99.90
18105;DHT22;9179;50.968;3.134;2024-02-15T01:16:35;15.10;99.90
18105;DHT22;9179;50.968;3.134;2024-02-15T01:19:03;15.10;99.90
18105;DHT22;9179;50.968;3.134;2024-02-15T01:21:31;15.10;99.90
18105;DHT22;9179;50.968;3.134;2024-02-15T01:23:58;14.90;99.90
18105;DHT22;9179;50.968;3.134;2024-02-15T01:26:26;14.80;99.90
18105;DHT22;9179;50.968;3.134;2024-02-15T01:28:53;14.70;99.90
18105;DHT22;9179;50.968;3.134;2024-02-15T01:31:20;14.60;99.90
18105;DHT22;9179;50.968;3.134;2024-02-15T01:33:48;14.70;99.90
18105;DHT22;9179;50.968;3.134;2024-02-15T01:36:17;14.70;99.90
18105;DHT22;9179;50.968;3.134;2024-02-15T01:38:44;14.80;99.90
18105;DHT22;9179;50.968;3.134;2024-02-15T01:41:12;14.80;99.90
18105;DHT22;9179;50.968;3.134;2024-02-15T01:43:43;14.90;99.90
18105;DHT22;9179;50.968;3.134;2024-02-15T01:46:10;14.90;99.90
18105;DHT22;9179;50.968;3.134;2024-02-15T01:48:40;14.90;99.90
18105;DHT22;9179;50.968;3.134;2024-02-15T01:51:07;15.00;99.90
18105;DHT22;9179;50.968;3.134;2024-02-15T01:53:38;15.00;99.90
18105;DHT22;9179;50.968;3.134;2024-02-15T01:56:07;15.10;99.90
18105;DHT22;9179;50.968;3.134;2024-02-15T01:58:34;15.00;99.90
18105;DHT22;9179;50.968;3.134;2024-02-15T02:01:02;15.10;99.90
18105;DHT22;9179;50.968;3.134;2024-02-15T02:03:30;15.10;99.90
18105;DHT22;9179;50.968;3.134;2024-02-15T02:05:57;15.00;99.90
18105;DHT22;9179;50.968;3.134;2024-02-15T02:08:25;15.10;99.90
18105;DHT22;9179;50.968;3.134;2024-02-15T02:10:54;15.10;99.90
18105;DHT22;9179;50.968;3.134;2024-02-15T02:13:21;15.10;99.90
18105;DHT22;9179;50.968;3.134;2024-02-15T02:15:48;15.10;99.90
18105;DHT22;9179;50.968;3.134;2024-02-15T02:18:15;14.70;99.90
18105;DHT22;9179;50.968;3.134;2024-02-15T02:20:42;14.40;99.90
18105;DHT22;9179;50.968;3.134;2024-02-15T02:23:14;14.20;99.90
18105;DHT22;9179;50.968;3.134;2024-02-15T02:25:44;14.30;99.90
18105;DHT22;9179;50.968;3.134;2024-02-15T02:28:15;14.40;99.90
18105;DHT22;9179;50.968;3.134;2024-02-15T02:30:42;14.40;99.90
18105;DHT22;9179;50.968;3.134;2024-02-15T02:33:11;14.30;99.90
18105;DHT22;9179;50.968;3.134;2024-02-15T02:35:43;14.30;99.90
18105;DHT22;9179;50.968;3.134;2024-02-15T02:38:11;14.20;99.90
18105;DHT22;9179;50.968;3.134;2024-02-15T02:40:38;14.20;99.90
18105;DHT22;9179;50.968;3.134;2024-02-15T02:43:06;14.20;99.90
18105;DHT22;9179;50.968;3.134;2024-02-15T02:45:33;14.40;99.90
18105;DHT22;9179;50.968;3.134;2024-02-15T02:48:00;14.40;99.90
18105;DHT22;9179;50.968;3.134;2024-02-15T02:50:27;14.40;99.90
18105;DHT22;9179;50.968;3.134;2024-02-15T02:52:54;14.40;99.90
18105;DHT22;9179;50.968;3.134;2024-02-15T02:55:22;14.50;99.90
18105;DHT22;9179;50.968;3.134;2024-02-15T02:57:49;14.50;99.90
18105;DHT22;9179;50.968;3.134;2024-02-15T03:00:18;14.50;99.90
18105;DHT22;9179;50.968;3.134;2024-02-15T03:02:46;14.50;99.90
18105;DHT22;9179;50.968;3.134;2024-02-15T03:05:14;14.50;99.90
18105;DHT22;9179;50.968;3.134;2024-02-15T03:07:41;14.50;99.90
18105;DHT22;9179;50.968;3.134;2024-02-15T03:10:08;14.60;99.90
18105;DHT22;9179;50.968;3.134;2024-02-15T03:12:35;14.60;99.90
18105;DHT22;9179;50.968;3.134;2024-02-15T03:15:03;14.60;99.90
18105;DHT22;9179;50.968;3.134;2024-02-15T03:17:31;14.60;99.90
18105;DHT22;9179;50.968;3.134;2024-02-15T03:19:58;14.50;99.90
18105;DHT22;9179;50.968;3.134;2024-02-15T03:22:24;14.50;99.90
18105;DHT22;9179;50.968;3.134;2024-02-15T03:24:53;14.50;99.90
18105;DHT22;9179;50.968;3.134;2024-02-15T03:27:20;14.60;99.90
18105;DHT22;9179;50.968;3.134;2024-02-15T03:29:48;14.60;99.90
18105;DHT22;9179;50.968;3.134;2024-02-15T03:32:16;14.60;99.90
18105;DHT22;9179;50.968;3.134;2024-02-15T03:34:45;14.60;99.90
18105;DHT22;9179;50.968;3.134;2024-02-15T03:37:12;14.60;99.90
18105;DHT22;9179;50.968;3.134;2024-02-15T03:39:39;14.70;99.90
18105;DHT22;9179;50.968;3.134;2024-02-15T03:42:06;14.60;99.90
18105;DHT22;9179;50.968;3.134;2024-02-15T03:44:32;14.60;99.90
18105;DHT22;9179;50.968;3.134;2024-02-15T03:47:00;14.60;99.90
18105;DHT22;9179;50.968;3.134;2024-02-15T03:49:27;14.70;99.90
18105;DHT22;9179;50.968;3.134;2024-02-15T03:51:57;14.70;99.90
18105;DHT22;9179;50.968;3.134;2024-02-15T03:54:27;14.70;99.90
18105;DHT22;9179;50.968;3.134;2024-02-15T03:56:55;14.70;99.90
18105;DHT22;9179;50.968;3.134;2024-02-15T03:59:25;14.70;99.90
18105;DHT22;9179;50.968;3.134;2024-02-15T04:01:52;14.40;99.90
18105;DHT22;9179;50.968;3.134;2024-02-15T04:04:19;14.30;99.90
18105;DHT22;9179;50.968;3.134;2024-02-15T04:06:47;14.30;99.90
18105;DHT22;9179;50.968;3.134;2024-02-15T04:09:15;14.30;99.90
18105;DHT22;9179;50.968;3.134;2024-02-15T04:11:44;14.30;99.90
18105;DHT22;9179;50.968;3.134;2024-02-15T04:14:12;14.40;99.90
18105;DHT22;9179;50.968;3.134;2024-02-15T04:16:39;14.40;99.90
18105;DHT22;9179;50.968;3.134;2024-02-15T04:19:06;14.40;99.90
18105;DHT22;9179;50.968;3.134;2024-02-15T04:21:33;14.40;99.90
18105;DHT22;9179;50.968;3.134;2024-02-15T04:24:00;14.40;99.90
18105;DHT22;9179;50.968;3.134;2024-02-15T04:26:28;14.40;99.90
18105;DHT22;9179;50.968;3.134;2024-02-15T04:28:57;14.50;99.90
18105;DHT22;9179;50.968;3.134;2024-02-15T04:31:24;14.50;99.90
18105;DHT22;9179;50.968;3.134;2024-02-15T04:33:55;14.40;99.90
18105;DHT22;9179;50.968;3.134;2024-02-15T04:36:22;14.40;99.90
18105;DHT22;9179;50.968;3.134;2024-02-15T04:38:50;14.40;99.90
18105;DHT22;9179;50.968;3.134;2024-02-15T04:41:17;14.40;99.90
18105;DHT22;9179;50.968;3.134;2024-02-15T04:43:50;14.50;99.90
18105;DHT22;9179;50.968;3.134;2024-02-15T04:46:16;14.50;99.90
18105;DHT22;9179;50.968;3.134;2024-02-15T04:48:46;14.50;99.90
18105;DHT22;9179;50.968;3.134;2024-02-15T04:51:15;14.50;99.90
18105;DHT22;9179;50.968;3.134;2024-02-15T04:53:43;14.50;99.90
18105;DHT22;9179;50.968;3.134;2024-02-15T04:56:12;14.60;99.90
18105;DHT22;9179;50.968;3.134;2024-02-15T04:58:40;14.60;99.90
18105;DHT22;9179;50.968;3.134;2024-02-15T05:01:16;14.60;99.90
18105;DHT22;9179;50.968;3.134;2024-02-15T05:03:43;14.50;99.90
18105;DHT22;9179;50.968;3.134;2024-02-15T05:06:11;14.50;99.90
18105;DHT22;9179;50.968;3.134;2024-02-15T05:08:39;14.60;99.90
18105;DHT22;9179;50.968;3.134;2024-02-15T05:11:08;14.70;99.90
18105;DHT22;9179;50.968;3.134;2024-02-15T05:13:40;14.60;99.90
18105;DHT22;9179;50.968;3.134;2024-02-15T05:16:07;14.70;99.90
18105;DHT22;9179;50.968;3.134;2024-02-15T05:18:36;14.70;99.90
18105;DHT22;9179;50.968;3.134;2024-02-15T05:21:04;14.70;99.90
18105;DHT22;9179;50.968;3.134;2024-02-15T05:23:34;14.70;99.90
18105;DHT22;9179;50.968;3.134;2024-02-15T05:26:02;14.70;99.90
18105;DHT22;9179;50.968;3.134;2024-02-15T05:28:30;14.70;99.90
18105;DHT22;9179;50.968;3.134;2024-02-15T05:31:11;14.60;99.90
18105;DHT22;9179;50.968;3.134;2024-02-15T05:33:41;14.60;99.90
18105;DHT22;9179;50.968;3.134;2024-02-15T05:36:10;14.60;99.90
18105;DHT22;9179;50.968;3.134;2024-02-15T05:38:37;14.60;99.90
18105;DHT22;9179;50.968;3.134;2024-02-15T05:41:04;14.70;99.90
18105;DHT22;9179;50.968;3.134;2024-02-15T05:43:32;14.70;99.90
18105;DHT22;9179;50.968;3.134;2024-02-15T05:46:02;14.80;99.90
18105;DHT22;9179;50.968;3.134;2024-02-15T05:48:29;14.80;99.90
18105;DHT22;9179;50.968;3.134;2024-02-15T05:50:57;14.80;99.90
18105;DHT22;9179;50.968;3.134;2024-02-15T05:53:25;14.80;99.90
18105;DHT22;9179;50.968;3.134;2024-02-15T05:55:52;14.80;99.90
18105;DHT22;9179;50.968;3.134;2024-02-15T05:58:19;14.90;99.90
18105;DHT22;9179;50.968;3.134;2024-02-15T06:00:46;14.90;99.90
18105;DHT22;9179;50.968;3.134;2024-02-15T06:03:15;14.80;99.90
18105;DHT22;9179;50.968;3.134;2024-02-15T06:05:42;14.70;99.90
18105;DHT22;9179;50.968;3.134;2024-02-15T06:08:11;14.50;99.90
18105;DHT22;9179;50.968;3.134;2024-02-15T06:10:38;14.30;99.90
18105;DHT22;9179;50.968;3.134;2024-02-15T06:13:06;14.20;99.90
18105;DHT22;9179;50.968;3.134;2024-02-15T06:15:34;14.20;99.90
18105;DHT22;9179;50.968;3.134;2024-02-15T06:18:01;14.20;99.90
18105;DHT22;9179;50.968;3.134;2024-02-15T06:20:35;14.10;99.90
18105;DHT22;9179;50.968;3.134;2024-02-15T06:23:04;13.90;99.90
18105;DHT22;9179;50.968;3.134;2024-02-15T06:25:34;13.80;99.90
18105;DHT22;9179;50.968;3.134;2024-02-15T06:28:01;13.80;99.90
18105;DHT22;9179;50.968;3.134;2024-02-15T06:30:39;13.80;99.90
18105;DHT22;9179;50.968;3.134;2024-02-15T06:33:23;13.80;99.90
18105;DHT22;9179;50.968;3.134;2024-02-15T06:36:07;13.70;99.90
18105;DHT22;9179;50.968;3.134;2024-02-15T06:38:51;13.70;99.90
18105;DHT22;9179;50.968;3.134;2024-02-15T06:41:37;13.80;99.90
18105;DHT22;9179;50.968;3.134;2024-02-15T06:44:04;13.70;99.90
18105;DHT22;9179;50.968;3.134;2024-02-15T06:46:31;13.60;99.90
18105;DHT22;9179;50.968;3.134;2024-02-15T06:48:58;13.50;99.90
18105;DHT22;9179;50.968;3.134;2024-02-15T06:51:25;13.60;99.90
18105;DHT22;9179;50.968;3.134;2024-02-15T06:53:52;13.50;99.90
18105;DHT22;9179;50.968;3.134;2024-02-15T06:56:21;13.60;99.90
18105;DHT22;9179;50.968;3.134;2024-02-15T06:58:49;13.60;99.90
18105;DHT22;9179;50.968;3.134;2024-02-15T07:01:16;13.60;99.90
18105;DHT22;9179;50.968;3.134;2024-02-15T07:03:44;13.60;99.90
18105;DHT22;9179;50.968;3.134;2024-02-15T07:06:11;13.50;99.90
18105;DHT22;9179;50.968;3.134;2024-02-15T07:08:39;13.50;99.90
18105;DHT22;9179;50.968;3.134;2024-02-15T07:11:06;13.50;99.90
18105;DHT22;9179;50.968;3.134;2024-02-15T07:13:35;13.60;99.90
18105;DHT22;9179;50.968;3.134;2024-02-15T07:16:07;13.50;99.90
18105;DHT22;9179;50.968;3.134;2024-02-15T07:18:34;13.50;99.90
18105;DHT22;9179;50.968;3.134;2024-02-15T07:21:01;13.50;99.90
18105;DHT22;9179;50.968;3.134;2024-02-15T07:23:29;13.50;99.90
18105;DHT22;9179;50.968;3.134;2024-02-15T07:25:56;13.50;99.90
18105;DHT22;9179;50.968;3.134;2024-02-15T07:28:23;13.50;99.90
18105;DHT22;9179;50.968;3.134;2024-02-15T07:30:52;13.60;99.90
18105;DHT22;9179;50.968;3.134;2024-02-15T07:33:21;13.70;99.90
18105;DHT22;9179;50.968;3.134;2024-02-15T07:35:49;13.70;99.90
18105;DHT22;9179;50.968;3.134;2024-02-15T07:38:16;13.60;99.90
18105;DHT22;9179;50.968;3.134;2024-02-15T07:40:43;13.70;99.90
18105;DHT22;9179;50.968;3.134;2024-02-15T07:43:10;13.80;99.90
18105;DHT22;9179;50.968;3.134;2024-02-15T07:45:38;13.90;99.90
18105;DHT22;9179;50.968;3.134;2024-02-15T07:48:05;13.90;99.90
18105;DHT22;9179;50.968;3.134;2024-02-15T07:50:33;14.10;99.90
18105;DHT22;9179;50.968;3.134;2024-02-15T07:53:03;14.10;99.90
18105;DHT22;9179;50.968;3.134;2024-02-15T07:55:31;14.20;99.90
18105;DHT22;9179;50.968;3.134;2024-02-15T07:57:57;14.30;99.90
18105;DHT22;9179;50.968;3.134;2024-02-15T08:00:25;14.50;99.90
18105;DHT22;9179;50.968;3.134;2024-02-15T08:02:53;14.60;99.90
18105;DHT22;9179;50.968;3.134;2024-02-15T08:05:20;14.80;99.90
18105;DHT22;9179;50.968;3.134;2024-02-15T08:07:48;14.90;99.90
18105;DHT22;9179;50.968;3.134;2024-02-15T08:10:16;14.90;99.90
18105;DHT22;9179;50.968;3.134;2024-02-15T08:12:44;15.00;99.90
18105;DHT22;9179;50.968;3.134;2024-02-15T08:15:12;15.30;99.90
18105;DHT22;9179;50.968;3.134;2024-02-15T08:17:39;15.40;99.90
18105;DHT22;9179;50.968;3.134;2024-02-15T08:20:07;15.50;99.90
18105;DHT22;9179;50.968;3.134;2024-02-15T08:22:35;15.60;99.90
18105;DHT22;9179;50.968;3.134;2024-02-15T08:25:07;15.60;99.90
18105;DHT22;9179;50.968;3.134;2024-02-15T08:27:37;15.70;99.90
18105;DHT22;9179;50.968;3.134;2024-02-15T08:30:07;15.90;99.90
18105;DHT22;9179;50.968;3.134;2024-02-15T08:32:36;16.00;99.90
18105;DHT22;9179;50.968;3.134;2024-02-15T08:35:03;16.00;99.90
18105;DHT22;9179;50.968;3.134;2024-02-15T08:37:31;16.10;99.90
18105;DHT22;9179;50.968;3.134;2024-02-15T08:39:59;16.30;99.90
18105;DHT22;9179;50.968;3.134;2024-02-15T08:42:28;16.40;99.90
18105;DHT22;9179;50.968;3.134;2024-02-15T08:44:55;16.50;99.90
18105;DHT22;9179;50.968;3.134;2024-02-15T08:47:22;16.50;99.90
18105;DHT22;9179;50.968;3.134;2024-02-15T08:49:49;16.80;99.90
18105;DHT22;9179;50.968;3.134;2024-02-15T08:52:16;16.90;99.90
18105;DHT22;9179;50.968;3.134;2024-02-15T08:54:44;17.00;99.90
18105;DHT22;9179;50.968;3.134;2024-02-15T08:57:11;16.90;99.90
18105;DHT22;9179;50.968;3.134;2024-02-15T08:59:40;16.90;99.90
18105;DHT22;9179;50.968;3.134;2024-02-15T09:02:08;16.90;99.90
18105;DHT22;9179;50.968;3.134;2024-02-15T09:04:35;16.90;99.90
18105;DHT22;9179;50.968;3.134;2024-02-15T09:07:02;16.70;99.90
18105;DHT22;9179;50.968;3.134;2024-02-15T09:09:30;16.80;99.90
18105;DHT22;9179;50.968;3.134;2024-02-15T09:12:01;16.80;99.90
18105;DHT22;9179;50.968;3.134;2024-02-15T09:14:31;17.00;99.90
18105;DHT22;9179;50.968;3.134;2024-02-15T09:16:59;17.30;99.90
18105;DHT22;9179;50.968;3.134;2024-02-15T09:19:27;17.50;99.90
18105;DHT22;9179;50.968;3.134;2024-02-15T09:21:54;17.60;99.90
18105;DHT22;9179;50.968;3.134;2024-02-15T09:24:22;17.60;99.90
18105;DHT22;9179;50.968;3.134;2024-02-15T09:26:50;17.60;99.90
18105;DHT22;9179;50.968;3.134;2024-02-15T09:29:18;17.70;99.90
18105;DHT22;9179;50.968;3.134;2024-02-15T09:31:46;17.90;99.90
18105;DHT22;9179;50.968;3.134;2024-02-15T09:34:15;17.90;99.90
18105;DHT22;9179;50.968;3.134;2024-02-15T09:36:42;17.90;99.90
18105;DHT22;9179;50.968;3.134;2024-02-15T09:39:08;17.90;99.90
18105;DHT22;9179;50.968;3.134;2024-02-15T09:41:39;17.90;99.90
18105;DHT22;9179;50.968;3.134;2024-02-15T09:44:08;18.10;99.90
18105;DHT22;9179;50.968;3.134;2024-02-15T09:46:36;18.10;99.90
18105;DHT22;9179;50.968;3.134;2024-02-15T09:49:04;18.10;99.90
18105;DHT22;9179;50.968;3.134;2024-02-15T09:51:34;18.00;99.90
18105;DHT22;9179;50.968;3.134;2024-02-15T09:54:02;18.20;99.90
18105;DHT22;9179;50.968;3.134;2024-02-15T09:56:31;18.40;99.90
18105;DHT22;9179;50.968;3.134;2024-02-15T09:58:59;18.50;99.90
18105;DHT22;9179;50.968;3.134;2024-02-15T10:01:30;18.70;99.90
18105;DHT22;9179;50.968;3.134;2024-02-15T10:03:58;18.80;99.90
18105;DHT22;9179;50.968;3.134;2024-02-15T10:06:25;18.90;99.90
18105;DHT22;9179;50.968;3.134;2024-02-15T10:09:23;19.00;99.90
18105;DHT22;9179;50.968;3.134;2024-02-15T10:11:54;18.90;99.90
18105;DHT22;9179;50.968;3.134;2024-02-15T10:14:22;19.00;99.90
18105;DHT22;9179;50.968;3.134;2024-02-15T10:16:49;19.20;99.90
18105;DHT22;9179;50.968;3.134;2024-02-15T10:19:15;19.30;99.90
18105;DHT22;9179;50.968;3.134;2024-02-15T10:21:44;19.40;99.90
18105;DHT22;9179;50.968;3.134;2024-02-15T10:24:12;19.70;99.90
18105;DHT22;9179;50.968;3.134;2024-02-15T10:26:39;19.80;99.90
18105;DHT22;9179;50.968;3.134;2024-02-15T10:29:08;19.60;99.90
18105;DHT22;9179;50.968;3.134;2024-02-15T10:31:36;19.30;99.90
18105;DHT22;9179;50.968;3.134;2024-02-15T10:34:06;18.90;99.90
18105;DHT22;9179;50.968;3.134;2024-02-15T10:36:34;18.90;99.90
18105;DHT22;9179;50.968;3.134;2024-02-15T10:39:13;18.90;99.90
18105;DHT22;9179;50.968;3.134;2024-02-15T10:41:44;19.00;99.90
18105;DHT22;9179;50.968;3.134;2024-02-15T10:44:15;19.20;99.90
18105;DHT22;9179;50.968;3.134;2024-02-15T10:46:44;19.10;99.90
18105;DHT22;9179;50.968;3.134;2024-02-15T10:49:11;19.10;99.90
18105;DHT22;9179;50.968;3.134;2024-02-15T10:51:43;19.00;99.90
18105;DHT22;9179;50.968;3.134;2024-02-15T10:54:15;19.10;99.90
18105;DHT22;9179;50.968;3.134;2024-02-15T10:56:48;19.20;99.90
18105;DHT22;9179;50.968;3.134;2024-02-15T10:59:18;19.50;99.90
18105;DHT22;9179;50.968;3.134;2024-02-15T11:01:49;19.70;99.90
18105;DHT22;9179;50.968;3.134;2024-02-15T11:04:20;19.90;99.90
18105;DHT22;9179;50.968;3.134;2024-02-15T11:06:50;20.00;99.90
18105;DHT22;9179;50.968;3.134;2024-02-15T11:09:18;20.20;99.90
18105;DHT22;9179;50.968;3.134;2024-02-15T11:11:48;20.40;99.90
18105;DHT22;9179;50.968;3.134;2024-02-15T11:14:23;20.60;99.90
18105;DHT22;9179;50.968;3.134;2024-02-15T11:16:50;20.80;99.90
18105;DHT22;9179;50.968;3.134;2024-02-15T11:22:16;21.00;99.90
18105;DHT22;9179;50.968;3.134;2024-02-15T11:24:48;21.00;99.90
18105;DHT22;9179;50.968;3.134;2024-02-15T11:27:26;21.00;99.90
18105;DHT22;9179;50.968;3.134;2024-02-15T11:29:54;21.10;99.90
18105;DHT22;9179;50.968;3.134;2024-02-15T11:32:40;20.90;99.90
18105;DHT22;9179;50.968;3.134;2024-02-15T11:35:11;20.70;99.90
18105;DHT22;9179;50.968;3.134;2024-02-15T11:37:56;20.80;99.90
18105;DHT22;9179;50.968;3.134;2024-02-15T11:40:29;20.80;99.90
18105;DHT22;9179;50.968;3.134;2024-02-15T11:42:57;20.80;99.90
18105;DHT22;9179;50.968;3.134;2024-02-15T11:45:25;20.90;99.90
18105;DHT22;9179;50.968;3.134;2024-02-15T11:47:58;20.80;99.90
18105;DHT22;9179;50.968;3.134;2024-02-15T11:50:28;20.70;99.90
18105;DHT22;9179;50.968;3.134;2024-02-15T11:53:02;20.70;99.90
18105;DHT22;9179;50.968;3.134;2024-02-15T11:55:32;20.50;99.90
18105;DHT22;9179;50.968;3.134;2024-02-15T11:58:02;20.40;99.90
18105;DHT22;9179;50.968;3.134;2024-02-15T12:00:38;20.40;99.90
18105;DHT22;9179;50.968;3.134;2024-02-15T12:03:23;20.50;99.90
18105;DHT22;9179;50.968;3.134;2024-02-15T12:06:08;20.70;99.90
18105;DHT22;9179;50.968;3.134;2024-02-15T12:08:53;20.70;99.90
18105;DHT22;9179;50.968;3.134;2024-02-15T12:11:39;21.20;99.90
18105;DHT22;9179;50.968;3.134;2024-02-15T12:14:24;21.10;99.90
18105;DHT22;9179;50.968;3.134;2024-02-15T12:17:10;21.70;99.90
18105;DHT22;9179;50.968;3.134;2024-02-15T12:19:55;22.10;99.90
18105;DHT22;9179;50.968;3.134;2024-02-15T12:22:24;22.40;99.90
18105;DHT22;9179;50.968;3.134;2024-02-15T12:24:56;22.00;99.90
18105;DHT22;9179;50.968;3.134;2024-02-15T12:27:25;21.50;99.90
18105;DHT22;9179;50.968;3.134;2024-02-15T12:29:56;21.20;99.90
18105;DHT22;9179;50.968;3.134;2024-02-15T12:32:24;21.10;99.90
18105;DHT22;9179;50.968;3.134;2024-02-15T12:34:51;21.20;99.90
18105;DHT22;9179;50.968;3.134;2024-02-15T12:37:19;21.40;99.90
18105;DHT22;9179;50.968;3.134;2024-02-15T12:39:48;21.80;99.90
18105;DHT22;9179;50.968;3.134;2024-02-15T12:42:15;22.50;99.90
18105;DHT22;9179;50.968;3.134;2024-02-15T12:44:45;22.90;99.90
18105;DHT22;9179;50.968;3.134;2024-02-15T12:47:20;22.80;99.90
18105;DHT22;9179;50.968;3.134;2024-02-15T12:49:47;22.40;99.90
18105;DHT22;9179;50.968;3.134;2024-02-15T12:52:38;22.00;99.90
18105;DHT22;9179;50.968;3.134;2024-02-15T12:55:13;21.60;99.90
18105;DHT22;9179;50.968;3.134;2024-02-15T12:57:40;21.10;99.90
18105;DHT22;9179;50.968;3.134;2024-02-15T13:00:13;20.80;99.90
18105;DHT22;9179;50.968;3.134;2024-02-15T13:02:44;20.80;99.90
18105;DHT22;9179;50.968;3.134;2024-02-15T13:05:11;20.70;99.90
18105;DHT22;9179;50.968;3.134;2024-02-15T13:07:39;20.70;99.90
18105;DHT22;9179;50.968;3.134;2024-02-15T13:10:07;20.90;99.90
18105;DHT22;9179;50.968;3.134;2024-02-15T13:12:35;20.80;99.90
18105;DHT22;9179;50.968;3.134;2024-02-15T13:15:04;20.80;99.90
18105;DHT22;9179;50.968;3.134;2024-02-15T13:17:33;20.80;99.90
18105;DHT22;9179;50.968;3.134;2024-02-15T13:20:00;20.50;99.90
18105;DHT22;9179;50.968;3.134;2024-02-15T13:22:31;20.40;99.90
18105;DHT22;9179;50.968;3.134;2024-02-15T13:25:00;20.30;99.90
18105;DHT22;9179;50.968;3.134;2024-02-15T13:27:29;20.30;99.90
18105;DHT22;9179;50.968;3.134;2024-02-15T13:29:56;20.30;99.90
18105;DHT22;9179;50.968;3.134;2024-02-15T13:32:23;20.40;99.90
18105;DHT22;9179;50.968;3.134;2024-02-15T13:34:52;20.40;99.90
18105;DHT22;9179;50.968;3.134;2024-02-15T13:37:22;20.50;99.90
18105;DHT22;9179;50.968;3.134;2024-02-15T13:39:50;20.80;99.90
18105;DHT22;9179;50.968;3.134;2024-02-15T13:42:17;21.10;99.90
18105;DHT22;9179;50.968;3.134;2024-02-15T13:44:44;21.20;99.90
18105;DHT22;9179;50.968;3.134;2024-02-15T13:47:11;21.10;99.90
18105;DHT22;9179;50.968;3.134;2024-02-15T13:49:38;21.00;99.90
18105;DHT22;9179;50.968;3.134;2024-02-15T13:52:07;21.10;99.90
18105;DHT22;9179;50.968;3.134;2024-02-15T13:54:36;21.20;99.90
18105;DHT22;9179;50.968;3.134;2024-02-15T13:57:04;21.40;99.90
18105;DHT22;9179;50.968;3.134;2024-02-15T13:59:32;21.50;99.90
18105;DHT22;9179;50.968;3.134;2024-02-15T14:02:00;21.30;99.90
18105;DHT22;9179;50.968;3.134;2024-02-15T14:04:29;21.10;99.90
18105;DHT22;9179;50.968;3.134;2024-02-15T14:06:57;20.90;99.90
18105;DHT22;9179;50.968;3.134;2024-02-15T14:09:27;20.70;99.90
18105;DHT22;9179;50.968;3.134;2024-02-15T14:11:54;20.40;99.90
18105;DHT22;9179;50.968;3.134;2024-02-15T14:14:21;20.10;99.90
18105;DHT22;9179;50.968;3.134;2024-02-15T14:16:47;20.00;99.90
18105;DHT22;9179;50.968;3.134;2024-02-15T14:19:14;20.10;99.90
18105;DHT22;9179;50.968;3.134;2024-02-15T14:21:43;20.20;99.90
18105;DHT22;9179;50.968;3.134;2024-02-15T14:24:10;20.20;99.90
18105;DHT22;9179;50.968;3.134;2024-02-15T14:26:40;20.10;99.90
18105;DHT22;9179;50.968;3.134;2024-02-15T14:29:07;20.30;99.90
18105;DHT22;9179;50.968;3.134;2024-02-15T14:31:35;20.30;99.90
18105;DHT22;9179;50.968;3.134;2024-02-15T14:34:19;20.10;99.90
18105;DHT22;9179;50.968;3.134;2024-02-15T14:36:46;20.00;99.90
18105;DHT22;9179;50.968;3.134;2024-02-15T14:39:14;19.90;99.90
18105;DHT22;9179;50.968;3.134;2024-02-15T14:41:42;19.60;99.90
18105;DHT22;9179;50.968;3.134;2024-02-15T14:44:10;19.50;99.90
18105;DHT22;9179;50.968;3.134;2024-02-15T14:46:39;19.50;99.90
18105;DHT22;9179;50.968;3.134;2024-02-15T14:49:06;19.30;99.90
18105;DHT22;9179;50.968;3.134;2024-02-15T14:51:34;19.20;99.90
18105;DHT22;9179;50.968;3.134;2024-02-15T14:54:02;19.30;99.90
18105;DHT22;9179;50.968;3.134;2024-02-15T14:56:30;19.20;99.90
18105;DHT22;9179;50.968;3.134;2024-02-15T14:59:00;19.10;99.90
18105;DHT22;9179;50.968;3.134;2024-02-15T15:01:27;19.10;99.90
18105;DHT22;9179;50.968;3.134;2024-02-15T15:03:55;19.10;99.90
18105;DHT22;9179;50.968;3.134;2024-02-15T15:06:24;19.10;99.90
18105;DHT22;9179;50.968;3.134;2024-02-15T15:09:09;19.00;99.90
18105;DHT22;9179;50.968;3.134;2024-02-15T15:11:54;19.00;99.90
18105;DHT22;9179;50.968;3.134;2024-02-15T15:14:40;18.90;99.90
18105;DHT22;9179;50.968;3.134;2024-02-15T15:17:07;18.90;99.90
18105;DHT22;9179;50.968;3.134;2024-02-15T15:19:36;18.80;99.90
18105;DHT22;9179;50.968;3.134;2024-02-15T15:22:03;18.60;99.90
18105;DHT22;9179;50.968;3.134;2024-02-15T15:24:33;18.50;99.90
18105;DHT22;9179;50.968;3.134;2024-02-15T15:27:00;18.40;99.90
18105;DHT22;9179;50.968;3.134;2024-02-15T15:29:27;18.20;99.90
18105;DHT22;9179;50.968;3.134;2024-02-15T15:31:57;18.10;99.90
18105;DHT22;9179;50.968;3.134;2024-02-15T15:34:24;17.90;99.90
18105;DHT22;9179;50.968;3.134;2024-02-15T15:36:51;17.80;99.90
18105;DHT22;9179;50.968;3.134;2024-02-15T15:39:20;17.70;99.90
18105;DHT22;9179;50.968;3.134;2024-02-15T15:41:50;17.70;99.90
18105;DHT22;9179;50.968;3.134;2024-02-15T15:44:19;17.70;99.90
18105;DHT22;9179;50.968;3.134;2024-02-15T15:46:48;17.70;99.90
18105;DHT22;9179;50.968;3.134;2024-02-15T15:49:17;17.70;99.90
18105;DHT22;9179;50.968;3.134;2024-02-15T15:51:44;17.60;99.90
18105;DHT22;9179;50.968;3.134;2024-02-15T15:54:12;17.50;99.90
18105;DHT22;9179;50.968;3.134;2024-02-15T15:56:39;17.50;99.90
18105;DHT22;9179;50.968;3.134;2024-02-15T15:59:06;17.40;99.90